createdAt,value
2022-09-26T00:01:55.726Z,4.03
2022-09-26T00:06:57.908Z,3.42
2022-09-26T00:11:56.676Z,5.53
2022-09-26T00:16:56.188Z,3.47
2022-09-26T00:21:56.283Z,3.47
2022-09-26T00:26:55.118Z,4.75
2022-09-26T00:31:53.935Z,5.10
2022-09-26T00:36:52.836Z,7.07
2022-09-26T00:41:53.070Z,5.00
2022-09-26T00:46:52.508Z,6.15
2022-09-26T00:51:55.971Z,6.38
2022-09-26T00:57:00.340Z,4.00
2022-09-26T01:02:00.766Z,5.53
2022-09-26T01:07:07.349Z,5.10
2022-09-26T01:12:09.936Z,5.20
2022-09-26T01:17:09.867Z,5.45
2022-09-26T01:22:34.615Z,3.88
2022-09-26T01:27:48.082Z,4.75
2022-09-26T01:33:23.531Z,5.18
2022-09-26T01:38:33.771Z,4.80
2022-09-26T01:43:39.680Z,4.32
2022-09-26T01:48:45.278Z,3.65
2022-09-26T01:53:54.871Z,5.53
2022-09-26T01:59:00.098Z,6.50
2022-09-26T02:04:06.422Z,4.10
2022-09-26T02:09:13.744Z,4.57
2022-09-26T02:14:18.284Z,5.30
2022-09-26T02:19:21.789Z,5.38
2022-09-26T02:24:23.582Z,7.57
2022-09-26T02:29:23.008Z,5.30
2022-09-26T02:34:25.759Z,6.53
2022-09-26T02:39:26.308Z,5.63
2022-09-26T02:45:02.129Z,5.53
2022-09-26T02:50:18.367Z,6.72
2022-09-26T02:55:23.052Z,5.95
2022-09-26T03:00:31.823Z,5.03
2022-09-26T03:05:32.229Z,7.20
2022-09-26T03:10:35.268Z,3.60
2022-09-26T03:15:35.396Z,8.18
2022-09-26T03:20:36.256Z,3.70
2022-09-26T03:25:36.736Z,8.52
2022-09-26T03:30:38.536Z,4.55
2022-09-26T03:36:00.721Z,6.93
2022-09-26T03:41:00.917Z,7.03
2022-09-26T03:46:18.397Z,6.72
2022-09-26T03:51:17.247Z,5.45
2022-09-26T03:56:19.589Z,5.28
2022-09-26T04:01:21.564Z,7.90
2022-09-26T04:06:21.881Z,7.40
2022-09-26T04:11:25.389Z,5.38
2022-09-26T04:16:24.819Z,5.13
2022-09-26T04:21:37.082Z,6.22
2022-09-26T04:26:37.257Z,8.23
2022-09-26T04:31:47.647Z,14.80
2022-09-26T04:36:51.325Z,6.20
2022-09-26T04:41:55.870Z,9.00
2022-09-26T04:46:59.009Z,10.32
2022-09-26T04:52:14.553Z,10.77
2022-09-26T04:57:19.548Z,8.88
2022-09-26T05:02:19.061Z,12.98
2022-09-26T05:07:18.528Z,13.75
2022-09-26T05:12:18.688Z,11.98
2022-09-26T05:17:21.672Z,10.90
2022-09-26T05:22:21.522Z,13.75
2022-09-26T05:27:24.366Z,10.48
2022-09-26T05:37:23.257Z,11.82
2022-09-26T05:42:23.813Z,7.32
2022-09-26T05:47:23.611Z,13.15
2022-09-26T05:52:23.122Z,7.03
2022-09-26T05:57:25.659Z,7.05
2022-09-26T06:07:44.162Z,9.73
2022-09-26T06:12:51.173Z,13.10
2022-09-26T06:17:58.412Z,12.93
2022-09-26T06:22:57.626Z,18.17
2022-09-26T06:28:00.208Z,13.80
2022-09-26T06:32:59.876Z,13.82
2022-09-26T06:38:10.107Z,9.32
2022-09-26T06:43:10.261Z,8.60
2022-09-26T06:48:35.067Z,8.07
2022-09-26T06:53:40.673Z,10.40
2022-09-26T06:58:40.928Z,11.15
2022-09-26T07:03:45.137Z,8.20
2022-09-26T07:09:12.066Z,8.48
2022-09-26T07:14:28.128Z,7.82
2022-09-26T07:19:33.093Z,3.50
2022-09-26T07:24:37.629Z,7.50
2022-09-26T07:29:37.810Z,4.40
2022-09-26T07:34:36.916Z,4.65
2022-09-26T07:39:36.315Z,4.88
2022-09-26T07:50:15.237Z,5.65
2022-09-26T07:55:32.380Z,4.35
2022-09-26T08:01:02.534Z,7.68
2022-09-26T08:06:21.234Z,6.00
2022-09-26T08:11:21.401Z,6.75
2022-09-26T08:16:49.149Z,6.28
2022-09-26T08:21:50.294Z,6.72
2022-09-26T08:26:50.454Z,6.57
2022-09-26T08:31:54.931Z,6.05
2022-09-26T08:36:55.684Z,5.43
2022-09-26T08:42:41.905Z,4.90
2022-09-26T08:48:05.493Z,5.15
2022-09-26T08:53:17.090Z,8.90
2022-09-26T08:58:28.956Z,16.88
2022-09-26T09:03:35.363Z,8.20
2022-09-26T09:08:45.370Z,6.55
2022-09-26T09:14:15.248Z,3.50
2022-09-26T09:19:51.312Z,6.67
2022-09-26T09:25:32.360Z,5.90
2022-09-26T09:30:41.805Z,4.70
2022-09-26T09:36:06.771Z,7.00
2022-09-26T09:41:19.711Z,4.88
2022-09-26T09:46:25.458Z,3.55
2022-09-26T09:51:40.236Z,5.95
2022-09-26T09:56:52.175Z,5.68
2022-09-26T10:02:01.261Z,5.35
2022-09-26T10:07:02.076Z,8.50
2022-09-26T10:12:05.235Z,5.68
2022-09-26T10:17:29.677Z,7.03
2022-09-26T10:22:45.850Z,5.95
2022-09-26T10:28:01.211Z,4.80
2022-09-26T10:33:03.569Z,6.80
2022-09-26T10:38:21.965Z,5.25
2022-09-26T10:43:34.133Z,6.70
2022-09-26T10:48:48.396Z,7.15
2022-09-26T10:54:06.295Z,5.75
2022-09-26T10:59:09.087Z,4.20
2022-09-26T11:04:39.316Z,4.57
2022-09-26T11:10:02.861Z,6.95
2022-09-26T11:15:19.752Z,6.93
2022-09-26T11:20:36.556Z,3.97
2022-09-26T11:25:50.705Z,4.18
2022-09-26T11:30:56.764Z,4.50
2022-09-26T11:36:14.798Z,3.25
2022-09-26T11:41:39.500Z,4.72
2022-09-26T11:46:55.308Z,4.18
2022-09-26T11:52:29.730Z,8.05
2022-09-26T12:02:56.218Z,3.67
2022-09-26T12:08:11.459Z,4.82
2022-09-26T12:13:20.871Z,5.30
2022-09-26T12:18:33.414Z,5.53
2022-09-26T12:23:38.455Z,3.60
2022-09-26T12:28:51.805Z,6.10
2022-09-26T12:34:13.453Z,4.90
2022-09-26T12:39:37.279Z,9.57
2022-09-26T12:45:01.533Z,4.50
2022-09-26T12:50:18.763Z,4.03
2022-09-26T12:55:27.612Z,3.08
2022-09-26T13:00:27.629Z,2.80
2022-09-26T13:05:56.921Z,3.08
2022-09-26T13:11:09.340Z,4.45
2022-09-26T13:16:25.226Z,6.15
2022-09-26T13:21:38.947Z,7.30
2022-09-26T13:26:43.941Z,5.55
2022-09-26T13:31:46.123Z,5.75
2022-09-26T13:36:47.021Z,6.45
2022-09-26T13:41:51.778Z,6.05
2022-09-26T13:47:03.835Z,7.07
2022-09-26T13:52:14.245Z,3.92
2022-09-26T13:57:31.853Z,7.82
2022-09-26T14:02:32.069Z,14.90
2022-09-26T14:08:09.017Z,11.88
2022-09-26T14:13:20.304Z,11.15
2022-09-26T14:18:32.683Z,13.05
2022-09-26T14:23:41.896Z,11.52
2022-09-26T14:28:48.068Z,8.13
2022-09-26T14:33:47.659Z,11.48
2022-09-26T14:38:50.789Z,23.23
2022-09-26T14:43:52.333Z,11.20
2022-09-26T14:48:59.728Z,10.05
2022-09-26T14:54:04.016Z,9.45
2022-09-26T14:59:40.336Z,13.95
2022-09-26T15:04:41.873Z,11.43
2022-09-26T15:09:45.537Z,9.88
2022-09-26T15:14:49.164Z,7.20
2022-09-26T15:19:52.199Z,8.05
2022-09-26T15:24:56.361Z,8.48
2022-09-26T15:29:58.064Z,4.45
2022-09-26T15:34:57.914Z,7.18
2022-09-26T15:39:58.856Z,15.23
2022-09-26T15:45:03.472Z,17.55
2022-09-26T15:50:13.520Z,22.05
2022-09-26T15:55:19.636Z,18.95
2022-09-26T16:00:19.427Z,14.88
2022-09-26T16:05:22.551Z,13.05
2022-09-26T16:10:28.558Z,17.30
2022-09-26T16:15:30.309Z,15.10
2022-09-26T16:20:31.499Z,20.45
2022-09-26T16:25:36.586Z,22.02
2022-09-26T16:30:42.345Z,25.27
2022-09-26T16:35:47.464Z,21.92
2022-09-26T16:40:53.797Z,29.38
2022-09-26T16:46:00.758Z,21.27
2022-09-26T16:51:15.380Z,25.90
2022-09-26T16:56:19.385Z,28.27
2022-09-26T17:01:36.702Z,22.08
2022-09-26T17:06:37.345Z,27.13
2022-09-26T17:11:37.789Z,31.03
2022-09-26T17:16:39.079Z,27.55
2022-09-26T17:21:38.867Z,33.30
2022-09-26T17:26:39.148Z,25.75
2022-09-26T17:31:38.890Z,22.13
2022-09-26T17:36:37.961Z,31.45
2022-09-26T17:41:38.301Z,35.03
2022-09-26T17:46:38.611Z,27.20
2022-09-26T17:51:37.794Z,29.33
2022-09-26T17:56:36.615Z,24.23
2022-09-26T18:01:36.971Z,21.42
2022-09-26T18:06:37.003Z,24.58
2022-09-26T18:11:37.426Z,22.20
2022-09-26T18:16:37.794Z,29.40
2022-09-26T18:21:38.796Z,35.67
2022-09-26T18:26:42.320Z,23.83
2022-09-26T18:31:45.316Z,25.35
2022-09-26T18:36:44.262Z,23.67
2022-09-26T18:41:45.215Z,27.15
2022-09-26T18:46:49.279Z,28.23
2022-09-26T18:51:48.502Z,28.23
2022-09-26T18:57:04.744Z,37.40
2022-09-26T19:02:05.461Z,26.63
2022-09-26T19:07:08.573Z,21.33
2022-09-26T19:12:08.752Z,22.60
2022-09-26T19:17:09.619Z,18.42
2022-09-26T19:22:14.913Z,18.85
2022-09-26T19:27:17.552Z,29.60
2022-09-26T19:32:23.364Z,23.23
2022-09-26T19:37:23.860Z,18.13
2022-09-26T19:42:29.329Z,18.55
2022-09-26T19:47:38.241Z,17.77
2022-09-26T19:52:39.775Z,16.38
2022-09-26T19:57:44.135Z,17.85
2022-09-26T20:02:44.511Z,18.52
2022-09-26T20:07:44.656Z,26.73
2022-09-26T20:12:43.917Z,25.45
2022-09-26T20:17:47.872Z,17.13
2022-09-26T20:22:47.679Z,16.10
2022-09-26T20:27:46.810Z,16.25
2022-09-26T20:32:47.114Z,20.05
2022-09-26T20:37:46.260Z,17.48
2022-09-26T20:42:48.400Z,17.08
2022-09-26T20:47:48.664Z,15.68
2022-09-26T20:52:47.522Z,15.95
2022-09-26T20:57:46.731Z,15.45
2022-09-26T21:02:47.355Z,17.92
2022-09-26T21:07:51.124Z,13.95
2022-09-26T21:12:50.004Z,12.30
2022-09-26T21:17:50.375Z,18.58
2022-09-26T21:22:50.733Z,18.27
2022-09-26T21:27:52.384Z,12.10
2022-09-26T21:32:54.539Z,11.32
2022-09-26T21:37:56.997Z,16.33
2022-09-26T21:43:00.677Z,13.73
2022-09-26T21:47:59.671Z,12.85
2022-09-26T21:53:04.601Z,13.20
2022-09-26T21:58:06.394Z,12.75
2022-09-26T22:03:06.793Z,15.32
2022-09-26T22:08:07.080Z,12.25
2022-09-26T22:13:06.510Z,11.73
2022-09-26T22:18:05.642Z,15.38
2022-09-26T22:23:04.565Z,13.00
2022-09-26T22:28:05.027Z,11.90
2022-09-26T22:33:03.994Z,11.48
2022-09-26T22:38:02.925Z,8.60
2022-09-26T22:43:02.142Z,10.48
2022-09-26T22:48:02.746Z,16.50
2022-09-26T22:53:01.589Z,9.15
2022-09-26T22:58:00.571Z,11.30
2022-09-26T23:02:59.371Z,7.60
2022-09-26T23:07:59.620Z,6.13
2022-09-26T23:12:59.188Z,7.40
2022-09-26T23:17:57.998Z,12.35
2022-09-26T23:22:58.099Z,9.60
2022-09-26T23:27:58.402Z,10.73
2022-09-26T23:32:57.217Z,7.18
2022-09-26T23:37:58.131Z,10.52
2022-09-26T23:42:58.455Z,10.60
2022-09-26T23:47:57.528Z,9.85
2022-09-26T23:52:56.423Z,10.68
2022-09-26T23:57:58.922Z,11.85
